createdAt,value
2022-08-18T00:01:22.458Z,20.62
2022-08-18T00:03:55.968Z,20.64
2022-08-18T00:06:28.695Z,20.68
2022-08-18T00:08:58.946Z,20.71
2022-08-18T00:11:27.734Z,20.73
2022-08-18T00:13:57.246Z,20.73
2022-08-18T00:16:25.819Z,20.72
2022-08-18T00:18:54.075Z,20.69
2022-08-18T00:21:22.354Z,20.65
2022-08-18T00:23:50.660Z,20.59
2022-08-18T00:26:18.952Z,20.54
2022-08-18T00:28:47.208Z,20.51
2022-08-18T00:31:16.688Z,20.46
2022-08-18T00:33:44.972Z,20.41
2022-08-18T00:36:14.703Z,20.37
2022-08-18T00:38:42.845Z,20.34
2022-08-18T00:41:11.008Z,20.28
2022-08-18T00:43:45.056Z,20.24
2022-08-18T00:46:20.321Z,20.19
2022-08-18T00:48:49.509Z,20.15
2022-08-18T00:51:27.500Z,20.09
2022-08-18T00:54:02.849Z,20.04
2022-08-18T00:56:37.457Z,20.00
2022-08-18T00:59:09.832Z,19.96
2022-08-18T01:01:41.361Z,19.96
2022-08-18T01:04:15.815Z,19.92
2022-08-18T01:06:51.802Z,19.90
2022-08-18T01:09:20.451Z,19.85
2022-08-18T01:11:48.812Z,19.83
2022-08-18T01:14:18.252Z,19.79
2022-08-18T01:17:05.829Z,19.74
2022-08-18T01:19:51.823Z,19.70
2022-08-18T01:22:26.789Z,19.67
2022-08-18T01:25:17.880Z,19.71
2022-08-18T01:27:46.481Z,19.77
2022-08-18T01:30:19.088Z,19.82
2022-08-18T01:32:47.248Z,19.86
2022-08-18T01:35:18.357Z,19.86
2022-08-18T01:37:46.559Z,19.89
2022-08-18T01:41:17.681Z,19.88
2022-08-18T01:43:07.197Z,19.88
2022-08-18T01:45:35.357Z,19.89
2022-08-18T01:48:04.715Z,19.88
2022-08-18T01:50:35.172Z,19.87
2022-08-18T01:53:05.545Z,19.86
2022-08-18T01:55:36.229Z,19.86
2022-08-18T01:58:05.515Z,19.84
2022-08-18T02:00:33.796Z,19.79
2022-08-18T02:03:03.091Z,19.74
2022-08-18T02:05:39.585Z,19.67
2022-08-18T02:08:08.672Z,19.65
2022-08-18T02:10:38.621Z,19.65
2022-08-18T02:13:06.850Z,19.70
2022-08-18T02:15:35.997Z,19.78
2022-08-18T02:18:04.442Z,19.85
2022-08-18T02:20:32.864Z,19.89
2022-08-18T02:23:03.030Z,19.95
2022-08-18T02:25:31.273Z,19.97
2022-08-18T02:28:00.783Z,20.02
2022-08-18T02:30:28.899Z,20.06
2022-08-18T02:32:59.140Z,20.11
2022-08-18T02:35:27.424Z,20.14
2022-08-18T02:37:55.545Z,20.17
2022-08-18T02:40:23.761Z,20.20
2022-08-18T02:42:52.773Z,20.23
2022-08-18T02:45:23.648Z,20.26
2022-08-18T02:47:54.076Z,20.29
2022-08-18T02:50:22.860Z,20.34
2022-08-18T02:52:51.049Z,20.37
2022-08-18T02:55:20.149Z,20.41
2022-08-18T02:57:50.080Z,20.45
2022-08-18T03:00:21.330Z,20.49
2022-08-18T03:02:52.107Z,20.50
2022-08-18T03:05:21.155Z,20.49
2022-08-18T03:07:51.052Z,20.49
2022-08-18T03:10:31.388Z,20.49
2022-08-18T03:13:02.277Z,20.50
2022-08-18T03:15:32.302Z,20.52
2022-08-18T03:18:02.131Z,20.54
2022-08-18T03:20:31.416Z,20.57
2022-08-18T03:23:05.672Z,20.59
2022-08-18T03:25:38.429Z,20.62
2022-08-18T03:28:07.024Z,20.65
2022-08-18T03:30:36.996Z,20.66
2022-08-18T03:33:05.549Z,20.68
2022-08-18T03:35:36.946Z,20.69
2022-08-18T03:38:05.950Z,20.70
2022-08-18T03:40:34.673Z,20.72
2022-08-18T03:43:48.589Z,20.72
2022-08-18T03:45:56.235Z,20.70
2022-08-18T03:48:25.386Z,20.69
2022-08-18T03:50:53.586Z,20.68
2022-08-18T03:53:21.778Z,20.67
2022-08-18T03:55:49.926Z,20.68
2022-08-18T03:58:18.043Z,20.68
2022-08-18T04:00:46.215Z,20.69
2022-08-18T04:03:21.368Z,20.70
2022-08-18T04:05:49.466Z,20.68
2022-08-18T04:08:18.205Z,20.66
2022-08-18T04:10:46.799Z,20.64
2022-08-18T04:13:14.999Z,20.62
2022-08-18T04:15:43.252Z,20.61
2022-08-18T04:18:12.267Z,20.60
2022-08-18T04:20:58.915Z,20.59
2022-08-18T04:23:28.152Z,20.56
2022-08-18T04:25:58.971Z,20.56
2022-08-18T04:28:28.288Z,20.55
2022-08-18T04:30:59.366Z,20.54
2022-08-18T04:33:28.503Z,20.57
2022-08-18T04:35:57.989Z,20.59
2022-08-18T04:38:26.452Z,20.59
2022-08-18T04:40:54.727Z,20.63
2022-08-18T04:43:23.231Z,20.63
2022-08-18T04:45:52.558Z,20.64
2022-08-18T04:48:20.825Z,20.64
2022-08-18T04:50:51.119Z,20.63
2022-08-18T04:53:34.524Z,20.64
2022-08-18T04:56:02.725Z,20.63
2022-08-18T04:58:31.176Z,20.64
2022-08-18T05:01:02.443Z,20.67
2022-08-18T05:03:30.662Z,20.68
2022-08-18T05:06:00.443Z,20.70
2022-08-18T05:08:30.307Z,20.74
2022-08-18T05:11:03.897Z,20.77
2022-08-18T05:13:32.604Z,20.78
2022-08-18T05:16:16.708Z,20.83
2022-08-18T05:18:46.517Z,20.84
2022-08-18T05:21:15.523Z,20.86
2022-08-18T05:23:47.479Z,20.87
2022-08-18T05:26:17.428Z,20.84
2022-08-18T05:28:46.715Z,20.81
2022-08-18T05:31:17.888Z,20.81
2022-08-18T05:33:47.566Z,20.78
2022-08-18T05:36:31.088Z,20.74
2022-08-18T05:39:08.690Z,20.72
2022-08-18T05:41:40.337Z,20.73
2022-08-18T05:44:11.875Z,20.77
2022-08-18T05:46:46.318Z,20.82
2022-08-18T05:49:15.700Z,20.92
2022-08-18T05:51:48.427Z,21.01
2022-08-18T05:54:38.454Z,21.15
2022-08-18T05:57:18.573Z,21.26
2022-08-18T05:59:49.106Z,21.39
2022-08-18T06:02:25.496Z,21.48
2022-08-18T06:04:56.995Z,21.58
2022-08-18T06:07:34.245Z,21.67
2022-08-18T06:10:06.853Z,21.77
2022-08-18T06:12:46.597Z,21.85
2022-08-18T06:15:20.469Z,21.95
2022-08-18T06:18:21.824Z,21.98
2022-08-18T06:21:26.463Z,21.99
2022-08-18T06:24:08.185Z,22.06
2022-08-18T06:26:48.022Z,22.15
2022-08-18T06:29:36.460Z,22.25
2022-08-18T06:32:14.084Z,22.36
2022-08-18T06:34:59.387Z,22.40
2022-08-18T06:37:56.424Z,22.38
2022-08-18T06:40:24.658Z,22.36
2022-08-18T06:42:54.197Z,22.48
2022-08-18T06:45:32.892Z,22.58
2022-08-18T06:48:15.427Z,22.67
2022-08-18T06:50:54.134Z,22.75
2022-08-18T06:53:27.736Z,22.82
2022-08-18T06:55:56.775Z,22.85
2022-08-18T06:58:31.451Z,22.89
2022-08-18T07:01:06.187Z,22.91
2022-08-18T07:03:47.804Z,22.87
2022-08-18T07:06:31.600Z,22.87
2022-08-18T07:09:24.057Z,22.87
2022-08-18T07:12:06.876Z,22.92
2022-08-18T07:14:48.557Z,22.99
2022-08-18T07:17:43.616Z,23.02
2022-08-18T07:20:22.035Z,23.02
2022-08-18T07:22:56.679Z,23.07
2022-08-18T07:25:32.229Z,23.16
2022-08-18T07:28:01.938Z,23.21
2022-08-18T07:30:36.941Z,23.19
2022-08-18T07:33:19.842Z,23.21
2022-08-18T07:35:56.506Z,23.29
2022-08-18T07:38:42.761Z,23.29
2022-08-18T07:41:20.269Z,23.29
2022-08-18T07:44:07.529Z,23.27
2022-08-18T07:46:47.352Z,23.22
2022-08-18T07:49:30.315Z,23.15
2022-08-18T07:52:06.993Z,23.02
2022-08-18T07:55:07.698Z,22.80
2022-08-18T07:57:46.899Z,22.61
2022-08-18T08:00:41.170Z,22.60
2022-08-18T08:03:30.560Z,22.74
2022-08-18T08:06:07.255Z,22.84
2022-08-18T08:08:44.248Z,22.89
2022-08-18T08:11:28.894Z,22.95
2022-08-18T08:14:25.660Z,22.99
2022-08-18T08:17:22.847Z,23.05
2022-08-18T08:20:19.203Z,23.19
2022-08-18T08:23:03.747Z,23.42
2022-08-18T08:25:46.923Z,23.59
2022-08-18T08:28:29.914Z,23.68
2022-08-18T08:31:35.314Z,23.71
2022-08-18T08:34:08.747Z,23.88
2022-08-18T08:36:44.915Z,24.10
2022-08-18T08:39:20.842Z,24.35
2022-08-18T08:41:57.898Z,24.59
2022-08-18T08:44:59.193Z,24.83
2022-08-18T08:47:36.672Z,24.97
2022-08-18T08:50:10.288Z,25.07
2022-08-18T08:52:46.968Z,25.13
2022-08-18T08:55:21.443Z,25.11
2022-08-18T08:57:55.024Z,24.92
2022-08-18T09:00:23.398Z,24.94
2022-08-18T09:03:17.766Z,25.21
2022-08-18T09:06:10.922Z,25.49
2022-08-18T09:09:06.371Z,25.65
2022-08-18T09:12:08.578Z,25.78
2022-08-18T09:15:18.478Z,26.03
2022-08-18T09:18:28.551Z,26.25
2022-08-18T09:21:09.446Z,26.29
2022-08-18T09:23:47.304Z,26.37
2022-08-18T09:26:40.020Z,26.35
2022-08-18T09:29:23.305Z,26.25
2022-08-18T09:32:36.814Z,26.26
2022-08-18T09:35:44.583Z,26.24
2022-08-18T09:38:42.168Z,26.28
2022-08-18T09:41:35.589Z,26.40
2022-08-18T09:44:21.784Z,26.49
2022-08-18T09:46:59.382Z,26.41
2022-08-18T09:49:51.014Z,26.20
2022-08-18T09:52:58.944Z,26.07
2022-08-18T09:56:01.660Z,25.92
2022-08-18T09:59:02.952Z,25.79
2022-08-18T10:01:42.555Z,25.74
2022-08-18T10:04:31.824Z,25.75
2022-08-18T10:07:21.722Z,25.72
2022-08-18T10:10:12.796Z,25.61
2022-08-18T10:13:07.854Z,25.38
2022-08-18T10:16:10.275Z,25.20
2022-08-18T10:19:02.791Z,25.25
2022-08-18T10:22:07.576Z,25.40
2022-08-18T10:24:40.959Z,25.55
2022-08-18T10:27:39.054Z,25.56
2022-08-18T10:31:06.222Z,25.53
2022-08-18T10:34:05.535Z,25.43
2022-08-18T10:36:53.015Z,25.44
2022-08-18T10:39:24.430Z,25.59
2022-08-18T10:42:03.369Z,25.81
2022-08-18T10:44:38.535Z,26.02
2022-08-18T10:47:24.957Z,26.08
2022-08-18T10:50:06.819Z,26.17
2022-08-18T10:53:23.880Z,26.24
2022-08-18T10:55:56.839Z,26.31
2022-08-18T10:59:16.103Z,26.36
2022-08-18T11:02:11.134Z,26.25
2022-08-18T11:04:46.895Z,26.09
2022-08-18T11:07:34.061Z,25.97
2022-08-18T11:10:58.212Z,25.88
2022-08-18T11:13:14.317Z,25.81
2022-08-18T11:16:10.251Z,25.83
2022-08-18T11:18:45.321Z,25.90
2022-08-18T11:21:42.395Z,25.87
2022-08-18T11:24:16.527Z,25.85
2022-08-18T11:26:52.505Z,25.92
2022-08-18T11:29:32.945Z,25.99
2022-08-18T11:32:09.269Z,26.07
2022-08-18T11:34:52.139Z,26.22
2022-08-18T11:37:28.054Z,26.40
2022-08-18T11:43:29.939Z,26.22
2022-08-18T11:46:16.989Z,25.86
2022-08-18T11:51:57.499Z,25.43
2022-08-18T11:54:50.261Z,25.40
2022-08-18T11:57:46.253Z,25.47
2022-08-18T12:00:44.339Z,25.65
2022-08-18T12:03:24.064Z,25.92
2022-08-18T12:05:56.636Z,26.16
2022-08-18T12:08:57.562Z,26.46
2022-08-18T12:11:28.935Z,26.73
2022-08-18T12:16:55.127Z,27.17
2022-08-18T12:19:25.325Z,27.49
2022-08-18T12:21:59.555Z,27.90
2022-08-18T12:27:24.565Z,28.44
2022-08-18T12:29:55.213Z,28.52
2022-08-18T12:32:50.231Z,28.62
2022-08-18T12:35:16.242Z,29.04
2022-08-18T12:40:40.246Z,29.13
2022-08-18T12:43:09.021Z,28.77
2022-08-18T12:45:38.124Z,28.42
2022-08-18T12:48:07.665Z,28.16
2022-08-18T12:50:50.167Z,27.98
2022-08-18T12:53:29.572Z,27.91
2022-08-18T12:56:10.623Z,27.87
2022-08-18T12:58:40.456Z,28.11
2022-08-18T13:01:08.941Z,28.78
2022-08-18T13:03:38.405Z,29.76
2022-08-18T13:06:11.490Z,30.76
2022-08-18T13:08:50.295Z,31.69
2022-08-18T13:11:23.805Z,32.30
2022-08-18T13:13:57.119Z,32.99
2022-08-18T13:16:38.545Z,33.58
2022-08-18T13:19:08.028Z,33.85
2022-08-18T13:21:41.288Z,34.28
2022-08-18T13:24:12.758Z,34.55
2022-08-18T13:26:46.768Z,34.61
2022-08-18T13:29:18.430Z,33.74
2022-08-18T13:31:55.466Z,33.37
2022-08-18T13:34:24.589Z,32.51
2022-08-18T13:36:52.691Z,32.13
2022-08-18T13:39:24.093Z,33.00
2022-08-18T13:41:55.410Z,34.11
2022-08-18T13:44:29.097Z,35.30
2022-08-18T13:46:57.580Z,36.41
2022-08-18T13:49:30.477Z,37.22
2022-08-18T13:52:00.865Z,37.83
2022-08-18T13:54:35.450Z,37.01
2022-08-18T13:57:06.695Z,35.83
2022-08-18T13:59:35.013Z,34.90
2022-08-18T14:02:08.584Z,34.29
2022-08-18T14:04:38.558Z,33.90
2022-08-18T14:07:11.064Z,34.10
2022-08-18T14:09:39.895Z,35.74
2022-08-18T14:12:23.388Z,36.44
2022-08-18T14:14:55.631Z,35.90
2022-08-18T14:17:26.788Z,35.23
2022-08-18T14:20:15.196Z,34.67
2022-08-18T14:23:21.729Z,35.16
2022-08-18T14:26:09.660Z,36.89
2022-08-18T14:28:41.277Z,37.50
2022-08-18T14:31:11.700Z,37.01
2022-08-18T14:33:51.574Z,36.11
2022-08-18T14:36:30.050Z,35.09
2022-08-18T14:38:59.227Z,34.25
2022-08-18T14:41:27.844Z,33.73
2022-08-18T14:44:12.525Z,33.40
2022-08-18T14:46:51.862Z,34.09
2022-08-18T14:49:28.280Z,34.47
2022-08-18T14:51:57.876Z,35.00
2022-08-18T14:54:28.632Z,36.84
2022-08-18T14:56:59.803Z,37.78
2022-08-18T14:59:30.767Z,37.80
2022-08-18T15:02:03.264Z,36.74
2022-08-18T15:04:32.301Z,35.64
2022-08-18T15:07:10.159Z,34.74
2022-08-18T15:09:40.978Z,34.02
2022-08-18T15:12:09.602Z,33.74
2022-08-18T15:14:44.181Z,33.70
2022-08-18T15:17:14.584Z,33.62
2022-08-18T15:19:58.994Z,33.57
2022-08-18T15:22:47.800Z,33.51
2022-08-18T15:25:33.940Z,32.84
2022-08-18T15:28:02.289Z,32.06
2022-08-18T15:30:32.119Z,31.43
2022-08-18T15:33:03.112Z,31.08
2022-08-18T15:35:32.283Z,31.13
2022-08-18T15:38:05.115Z,31.26
2022-08-18T15:40:41.391Z,31.57
2022-08-18T15:43:10.606Z,31.16
2022-08-18T15:45:56.244Z,32.06
2022-08-18T15:48:28.514Z,34.32
2022-08-18T15:50:57.770Z,35.40
2022-08-18T15:53:44.571Z,35.66
2022-08-18T15:56:16.068Z,36.72
2022-08-18T15:58:49.445Z,37.72
2022-08-18T16:01:30.223Z,38.72
2022-08-18T16:03:59.874Z,39.58
2022-08-18T16:06:32.376Z,40.01
2022-08-18T16:09:03.467Z,40.27
2022-08-18T16:11:33.006Z,40.49
2022-08-18T16:14:01.178Z,40.59
2022-08-18T16:16:36.333Z,40.64
2022-08-18T16:19:07.877Z,41.18
2022-08-18T16:21:40.269Z,41.58
2022-08-18T16:24:09.535Z,41.58
2022-08-18T16:26:37.684Z,41.60
2022-08-18T16:29:05.908Z,41.87
2022-08-18T16:31:35.381Z,42.06
2022-08-18T16:34:04.422Z,42.28
2022-08-18T16:36:32.494Z,42.52
2022-08-18T16:39:01.033Z,42.57
2022-08-18T16:41:30.404Z,42.46
2022-08-18T16:43:58.521Z,42.35
2022-08-18T16:46:29.413Z,42.19
2022-08-18T16:48:59.941Z,42.17
2022-08-18T16:51:31.447Z,42.00
2022-08-18T16:53:59.589Z,42.13
2022-08-18T16:56:30.848Z,42.36
2022-08-18T16:59:16.763Z,42.59
2022-08-18T17:02:11.145Z,42.68
2022-08-18T17:04:41.688Z,42.73
2022-08-18T17:07:09.940Z,42.84
2022-08-18T17:09:38.066Z,42.94
2022-08-18T17:12:06.686Z,42.76
2022-08-18T17:14:36.808Z,42.69
2022-08-18T17:17:07.658Z,42.56
2022-08-18T17:19:37.537Z,42.55
2022-08-18T17:22:08.378Z,42.26
2022-08-18T17:24:37.582Z,42.16
2022-08-18T17:27:12.230Z,41.83
2022-08-18T17:30:04.071Z,41.11
2022-08-18T17:32:41.103Z,40.88
2022-08-18T17:35:17.724Z,40.85
2022-08-18T17:37:59.267Z,40.85
2022-08-18T17:40:32.469Z,40.75
2022-08-18T17:43:01.965Z,40.40
2022-08-18T17:45:35.969Z,40.14
2022-08-18T17:48:12.750Z,40.03
2022-08-18T17:51:11.070Z,39.89
2022-08-18T17:53:41.294Z,39.69
2022-08-18T17:56:16.200Z,39.47
2022-08-18T17:58:55.769Z,39.16
2022-08-18T18:01:27.388Z,38.87
2022-08-18T18:03:55.791Z,38.15
2022-08-18T18:06:38.865Z,37.21
2022-08-18T18:09:11.678Z,35.82
2022-08-18T18:11:42.620Z,35.00
2022-08-18T18:14:28.437Z,34.55
2022-08-18T18:17:12.735Z,34.02
2022-08-18T18:19:43.357Z,32.96
2022-08-18T18:22:21.271Z,31.68
2022-08-18T18:24:54.405Z,30.52
2022-08-18T18:27:31.396Z,29.63
2022-08-18T18:30:03.210Z,28.92
2022-08-18T18:32:38.455Z,28.28
2022-08-18T18:35:17.538Z,27.69
2022-08-18T18:37:51.558Z,27.15
2022-08-18T18:40:31.776Z,26.66
2022-08-18T18:43:21.769Z,26.21
2022-08-18T18:46:30.222Z,25.78
2022-08-18T18:49:17.096Z,25.39
2022-08-18T18:52:00.100Z,25.05
2022-08-18T18:54:50.228Z,24.69
2022-08-18T18:57:31.949Z,24.43
2022-08-18T19:00:18.097Z,24.18
2022-08-18T19:03:08.048Z,23.90
2022-08-18T19:05:42.694Z,23.68
2022-08-18T19:08:26.252Z,23.50
2022-08-18T19:11:01.419Z,23.26
2022-08-18T19:13:35.456Z,23.03
2022-08-18T19:16:23.264Z,22.88
2022-08-18T19:18:57.918Z,22.74
2022-08-18T19:22:04.787Z,22.56
2022-08-18T19:24:42.157Z,22.40
2022-08-18T19:27:23.388Z,22.26
2022-08-18T19:30:00.557Z,22.13
2022-08-18T19:32:39.400Z,22.00
2022-08-18T19:35:12.137Z,21.90
2022-08-18T19:38:01.837Z,21.77
2022-08-18T19:40:45.014Z,21.65
2022-08-18T19:43:26.512Z,21.54
2022-08-18T19:46:05.601Z,21.44
2022-08-18T19:48:44.446Z,21.33
2022-08-18T19:51:23.440Z,21.22
2022-08-18T19:54:19.119Z,21.09
2022-08-18T19:57:14.259Z,20.97
2022-08-18T20:00:05.677Z,20.89
2022-08-18T20:03:19.667Z,20.80
2022-08-18T20:06:32.574Z,20.70
2022-08-18T20:09:34.127Z,20.58
2022-08-18T20:12:37.680Z,20.49
2022-08-18T20:15:16.255Z,20.40
2022-08-18T20:18:23.981Z,20.30
2022-08-18T20:21:45.377Z,20.22
2022-08-18T20:24:41.640Z,20.11
2022-08-18T20:27:36.081Z,20.04
2022-08-18T20:30:27.081Z,19.98
2022-08-18T20:33:17.574Z,19.91
2022-08-18T20:35:59.490Z,19.85
2022-08-18T20:38:35.568Z,19.79
2022-08-18T20:41:39.181Z,19.73
2022-08-18T20:44:30.251Z,19.66
2022-08-18T20:47:16.712Z,19.60
2022-08-18T20:49:56.768Z,19.56
2022-08-18T20:52:38.705Z,19.50
2022-08-18T20:55:20.717Z,19.44
2022-08-18T20:57:54.850Z,19.41
2022-08-18T21:00:27.025Z,19.36
2022-08-18T21:02:58.538Z,19.33
2022-08-18T21:05:32.896Z,19.29
2022-08-18T21:08:17.845Z,19.22
2022-08-18T21:10:52.326Z,19.19
2022-08-18T21:13:35.338Z,19.15
2022-08-18T21:16:03.772Z,19.11
2022-08-18T21:18:35.030Z,19.08
2022-08-18T21:21:08.793Z,19.07
2022-08-18T21:23:42.381Z,19.04
2022-08-18T21:26:18.724Z,18.99
2022-08-18T21:28:52.701Z,18.95
2022-08-18T21:31:42.904Z,18.90
2022-08-18T21:34:18.285Z,18.86
2022-08-18T21:36:56.123Z,18.84
2022-08-18T21:39:26.087Z,18.81
2022-08-18T21:41:57.937Z,18.76
2022-08-18T21:44:41.661Z,18.71
2022-08-18T21:47:20.447Z,18.69
2022-08-18T21:50:01.328Z,18.64
2022-08-18T21:52:31.517Z,18.62
2022-08-18T21:55:06.900Z,18.60
2022-08-18T21:58:03.107Z,18.53
2022-08-18T22:00:35.774Z,18.50
2022-08-18T22:03:23.223Z,18.44
2022-08-18T22:06:03.427Z,18.40
2022-08-18T22:08:34.965Z,18.39
2022-08-18T22:11:59.497Z,18.36
2022-08-18T22:14:53.984Z,18.31
2022-08-18T22:17:32.320Z,18.29
2022-08-18T22:20:44.192Z,18.24
2022-08-18T22:23:51.410Z,18.23
2022-08-18T22:26:26.516Z,18.21
2022-08-18T22:29:00.503Z,18.19
2022-08-18T22:31:32.515Z,18.16
2022-08-18T22:34:05.092Z,18.10
2022-08-18T22:36:37.054Z,18.07
2022-08-18T22:39:08.554Z,18.04
2022-08-18T22:41:38.882Z,18.02
2022-08-18T22:44:08.022Z,17.99
2022-08-18T22:46:36.880Z,18.01
2022-08-18T22:49:05.789Z,18.00
2022-08-18T22:51:37.173Z,17.99
2022-08-18T22:54:08.313Z,17.96
2022-08-18T22:56:38.645Z,17.92
2022-08-18T22:59:15.921Z,17.88
2022-08-18T23:01:51.250Z,17.83
2022-08-18T23:04:22.050Z,17.80
2022-08-18T23:06:52.523Z,17.78
2022-08-18T23:09:23.615Z,17.75
2022-08-18T23:11:56.960Z,17.72
2022-08-18T23:14:25.529Z,17.70
2022-08-18T23:16:53.606Z,17.67
2022-08-18T23:19:22.780Z,17.65
2022-08-18T23:21:51.815Z,17.63
2022-08-18T23:24:21.731Z,17.61
2022-08-18T23:26:50.394Z,17.58
2022-08-18T23:29:21.399Z,17.56
2022-08-18T23:31:51.397Z,17.52
2022-08-18T23:34:24.993Z,17.49
2022-08-18T23:36:56.432Z,17.48
2022-08-18T23:39:26.186Z,17.45
2022-08-18T23:41:55.173Z,17.42
2022-08-18T23:44:27.678Z,17.39
2022-08-18T23:46:57.905Z,17.38
2022-08-18T23:49:26.415Z,17.36
2022-08-18T23:51:56.073Z,17.34
2022-08-18T23:54:28.432Z,17.30
2022-08-18T23:56:57.101Z,17.29
2022-08-18T23:59:28.400Z,17.32
